Time;durP1;ratioP1;P1;durP2;ratioP2;P2;SDS_P1;SDS_P2;PMS_P1;PMS_P2;Temp;Humidity;BMP_temperature;BMP_pressure;BME280_temperature;BME280_humidity;BME280_pressure;Samples;Min_cycle;Max_cycle;Signal;HPM_P1;HPM_P2
2022/08/03 00:01:35;;;;;;;2.57;1.60;;;20.80;99.90;;;;;;5012193;28;20450;-73
2022/08/03 00:04:02;;;;;;;1.93;1.50;;;20.80;99.90;;;;;;5012057;28;20414;-72
2022/08/03 00:06:28;;;;;;;4.83;1.90;;;20.80;99.90;;;;;;5010685;28;20913;-72
2022/08/03 00:08:53;;;;;;;2.13;1.67;;;20.80;99.90;;;;;;5010788;28;20492;-72
2022/08/03 00:11:19;;;;;;;4.10;2.13;;;20.80;99.90;;;;;;5011845;28;20200;-72
2022/08/03 00:13:45;;;;;;;2.37;1.70;;;20.80;99.90;;;;;;5011832;28;20169;-72
2022/08/03 00:16:10;;;;;;;1.57;1.47;;;20.80;99.90;;;;;;5011671;28;20279;-72
2022/08/03 00:18:36;;;;;;;2.13;1.93;;;20.70;99.90;;;;;;5011835;28;20250;-72
2022/08/03 00:21:03;;;;;;;1.50;1.40;;;20.60;99.90;;;;;;5011811;28;20272;-72
2022/08/03 00:23:29;;;;;;;2.63;1.60;;;20.60;99.90;;;;;;5010349;28;20412;-72
2022/08/03 00:25:54;;;;;;;2.53;1.90;;;20.60;99.90;;;;;;5010227;28;20797;-72
2022/08/03 00:28:20;;;;;;;2.50;1.70;;;20.50;99.90;;;;;;5011622;28;20545;-72
2022/08/03 00:30:45;;;;;;;3.40;1.87;;;20.60;99.90;;;;;;5010671;28;20192;-72
2022/08/03 00:33:11;;;;;;;2.50;1.70;;;20.60;99.90;;;;;;5011939;28;20239;-72
2022/08/03 00:35:37;;;;;;;3.00;1.97;;;20.70;99.90;;;;;;5011404;28;20211;-72
2022/08/03 00:38:02;;;;;;;2.10;1.43;;;20.70;99.90;;;;;;5013709;28;20226;-72
2022/08/03 00:40:28;;;;;;;3.33;1.73;;;20.60;99.90;;;;;;5015091;28;20184;-73
2022/08/03 00:42:55;;;;;;;3.30;2.20;;;20.60;99.90;;;;;;5014979;28;20187;-74
2022/08/03 00:45:23;;;;;;;1.93;1.70;;;20.60;99.90;;;;;;5013688;28;20219;-72
2022/08/03 00:47:49;;;;;;;1.97;1.77;;;20.60;99.90;;;;;;5015321;28;20399;-74
2022/08/03 00:50:16;;;;;;;2.17;1.60;;;20.60;99.90;;;;;;5015037;28;20407;-74
2022/08/03 00:52:42;;;;;;;2.40;1.73;;;20.60;99.90;;;;;;5015033;28;20506;-73
2022/08/03 00:55:09;;;;;;;2.23;1.63;;;20.50;99.90;;;;;;5013403;28;20407;-73
2022/08/03 00:57:35;;;;;;;2.00;1.87;;;20.50;99.90;;;;;;5014919;28;20399;-73
2022/08/03 01:00:01;;;;;;;2.90;2.00;;;20.40;99.90;;;;;;5014912;28;20477;-73
2022/08/03 01:02:28;;;;;;;2.70;2.10;;;20.40;99.90;;;;;;5014959;28;20403;-74
2022/08/03 01:04:54;;;;;;;1.47;1.37;;;20.40;99.90;;;;;;5014529;28;20214;-73
2022/08/03 01:07:51;;;;;;;3.00;1.70;;;20.40;99.90;;;;;;5014798;28;20938;-74
2022/08/03 01:10:32;;;;;;;2.70;1.80;;;20.40;99.90;;;;;;5014823;28;20426;-72
2022/08/03 01:13:08;;;;;;;2.50;2.30;;;20.30;99.90;;;;;;5013481;28;20822;-72
2022/08/03 01:15:43;;;;;;;1.70;1.60;;;20.30;99.90;;;;;;5014306;28;20546;-72
2022/08/03 01:18:25;;;;;;;2.17;1.60;;;20.30;99.90;;;;;;5014600;28;20409;-72
2022/08/03 01:20:56;;;;;;;2.70;2.33;;;20.20;99.90;;;;;;5013015;28;20435;-74
2022/08/03 01:23:27;;;;;;;2.30;2.10;;;20.20;99.90;;;;;;5014299;28;20772;-73
2022/08/03 01:26:36;;;;;;;5.33;2.20;;;20.10;99.90;;;;;;5014214;28;20412;-73
2022/08/03 01:29:34;;;;;;;2.23;2.03;;;20.10;99.90;;;;;;4999440;28;20407;-72
2022/08/03 01:32:04;;;;;;;3.00;1.43;;;20.10;99.90;;;;;;5012842;28;20434;-72
2022/08/03 01:34:33;;;;;;;2.63;2.17;;;20.10;99.90;;;;;;5013916;28;20415;-72
2022/08/03 01:37:01;;;;;;;2.60;1.80;;;20.10;99.90;;;;;;5012911;28;20538;-72
2022/08/03 01:39:30;;;;;;;2.33;2.03;;;20.10;99.90;;;;;;5014129;28;20489;-72
2022/08/03 01:41:59;;;;;;;3.10;1.90;;;20.10;99.90;;;;;;5013888;28;20947;-72
2022/08/03 01:44:28;;;;;;;4.67;1.87;;;20.00;99.90;;;;;;5013509;28;20411;-72
2022/08/03 01:46:56;;;;;;;1.67;1.43;;;20.10;99.90;;;;;;5014020;28;20410;-73
2022/08/03 01:49:23;;;;;;;1.93;1.67;;;20.00;99.90;;;;;;5012987;28;20404;-73
2022/08/03 01:51:50;;;;;;;2.33;1.80;;;20.00;99.90;;;;;;5013785;28;20517;-74
2022/08/03 01:54:16;;;;;;;2.10;1.77;;;20.10;99.90;;;;;;5013638;28;20868;-74
2022/08/03 01:56:44;;;;;;;2.80;1.60;;;20.10;99.90;;;;;;5012147;28;20985;-73
2022/08/03 01:59:11;;;;;;;2.40;1.43;;;20.10;99.90;;;;;;5013600;28;20403;-73
2022/08/03 02:01:38;;;;;;;2.00;1.80;;;20.10;99.90;;;;;;5013699;28;20430;-74
2022/08/03 02:04:06;;;;;;;2.13;1.93;;;20.10;99.90;;;;;;5013810;28;20403;-72
2022/08/03 02:06:33;;;;;;;3.47;2.17;;;20.00;99.90;;;;;;5013144;28;20415;-72
2022/08/03 02:09:00;;;;;;;3.23;2.03;;;20.00;99.90;;;;;;5013647;28;20411;-72
2022/08/03 02:11:29;;;;;;;2.13;1.93;;;20.00;99.90;;;;;;5013374;28;20435;-73
2022/08/03 02:13:57;;;;;;;2.50;2.13;;;20.00;99.90;;;;;;5013329;28;20800;-73
2022/08/03 02:16:23;;;;;;;2.47;2.27;;;19.90;99.90;;;;;;5013162;28;20451;-73
2022/08/03 02:18:50;;;;;;;2.23;1.97;;;19.90;99.90;;;;;;5013371;28;20541;-73
2022/08/03 02:21:16;;;;;;;3.10;2.37;;;19.90;99.90;;;;;;5012147;28;20431;-74
2022/08/03 02:23:42;;;;;;;2.20;2.03;;;19.80;99.90;;;;;;5013403;28;20395;-72
2022/08/03 02:26:13;;;;;;;1.83;1.60;;;19.80;99.90;;;;;;5012922;28;21034;-72
2022/08/03 02:28:42;;;;;;;2.53;1.90;;;19.80;99.90;;;;;;5013340;28;20179;-72
2022/08/03 02:31:14;;;;;;;2.43;1.80;;;19.80;99.90;;;;;;5013116;28;20862;-72
2022/08/03 02:33:47;;;;;;;3.10;1.93;;;19.80;99.90;;;;;;5011990;28;20466;-72
2022/08/03 02:36:15;;;;;;;3.10;2.07;;;19.80;99.90;;;;;;5012754;28;20447;-73
2022/08/03 02:38:43;;;;;;;2.57;2.00;;;19.80;99.90;;;;;;5013082;28;20418;-73
2022/08/03 02:41:15;;;;;;;5.57;2.57;;;19.80;99.90;;;;;;5011748;28;20435;-72
2022/08/03 02:43:45;;;;;;;1.83;1.60;;;19.70;99.90;;;;;;5012927;28;20817;-72
2022/08/03 02:46:13;;;;;;;3.23;3.00;;;19.70;99.90;;;;;;5012712;28;20748;-72
2022/08/03 02:48:40;;;;;;;3.80;1.60;;;19.70;99.90;;;;;;5013026;28;20434;-72
2022/08/03 02:51:06;;;;;;;3.43;1.93;;;19.70;99.90;;;;;;5011243;28;21032;-72
2022/08/03 02:53:33;;;;;;;1.93;1.73;;;19.70;99.90;;;;;;5012991;28;20435;-72
2022/08/03 02:56:00;;;;;;;2.00;1.60;;;19.70;99.90;;;;;;5011335;28;20446;-72
2022/08/03 02:58:27;;;;;;;2.00;1.80;;;19.70;99.90;;;;;;5012834;28;20403;-72
2022/08/03 03:00:54;;;;;;;2.23;1.80;;;19.70;99.90;;;;;;5012581;28;20480;-73
2022/08/03 03:03:21;;;;;;;2.60;1.97;;;19.70;99.90;;;;;;5012614;28;20927;-73
2022/08/03 03:05:49;;;;;;;2.70;2.17;;;19.60;99.90;;;;;;5011404;28;20469;-73
2022/08/03 03:08:17;;;;;;;1.90;1.60;;;19.60;99.90;;;;;;5011375;28;20411;-74
2022/08/03 03:10:43;;;;;;;3.10;1.70;;;19.60;99.90;;;;;;5011352;28;20446;-73
2022/08/03 03:13:10;;;;;;;2.13;1.90;;;19.50;99.90;;;;;;5012477;28;20403;-72
2022/08/03 03:15:38;;;;;;;2.03;1.60;;;19.50;99.90;;;;;;5012050;28;20486;-74
2022/08/03 03:18:05;;;;;;;1.90;1.43;;;19.40;99.90;;;;;;5012320;28;20457;-73
2022/08/03 03:20:34;;;;;;;1.77;1.63;;;19.40;99.90;;;;;;5012487;28;20423;-74
2022/08/03 03:23:00;;;;;;;2.60;2.37;;;19.40;99.90;;;;;;5011155;28;20816;-74
2022/08/03 03:25:30;;;;;;;3.00;1.77;;;19.40;99.90;;;;;;5012218;28;20413;-73
2022/08/03 03:27:57;;;;;;;2.30;2.07;;;19.40;99.90;;;;;;5011131;28;20419;-72
2022/08/03 03:30:23;;;;;;;2.03;1.63;;;19.30;99.90;;;;;;5012365;28;20446;-72
2022/08/03 03:32:49;;;;;;;2.40;1.60;;;19.40;99.90;;;;;;5012310;28;20402;-74
2022/08/03 03:35:15;;;;;;;2.10;1.90;;;19.40;99.90;;;;;;5012006;28;20399;-75
2022/08/03 03:37:41;;;;;;;3.27;2.33;;;19.40;99.90;;;;;;5012280;28;20226;-74
2022/08/03 03:40:07;;;;;;;3.93;1.90;;;19.30;99.90;;;;;;5012136;28;20407;-74
2022/08/03 03:42:33;;;;;;;2.23;1.73;;;19.30;99.90;;;;;;5012256;28;20715;-74
2022/08/03 03:45:03;;;;;;;2.03;1.70;;;19.20;99.90;;;;;;5010644;28;20411;-73
2022/08/03 03:47:29;;;;;;;3.47;2.37;;;19.20;99.90;;;;;;5010971;28;20413;-73
2022/08/03 03:49:56;;;;;;;6.00;2.50;;;19.10;99.90;;;;;;5012102;28;20959;-72
2022/08/03 03:52:22;;;;;;;4.07;2.30;;;19.10;99.90;;;;;;5012021;28;20533;-72
2022/08/03 03:54:47;;;;;;;2.57;1.90;;;19.10;99.90;;;;;;5012085;28;20445;-72
2022/08/03 03:57:13;;;;;;;1.50;1.30;;;19.10;99.90;;;;;;5010810;28;20246;-74
2022/08/03 03:59:39;;;;;;;2.20;1.87;;;19.10;99.90;;;;;;5011909;28;20230;-74
2022/08/03 04:02:07;;;;;;;2.20;1.97;;;19.10;99.90;;;;;;5011908;28;20619;-74
2022/08/03 04:12:56;;;;;;;2.20;2.00;;;19.10;99.90;;;;;;5013898;28;20453;-73
2022/08/03 04:15:22;;;;;;;2.33;2.13;;;19.20;99.90;;;;;;5015464;28;20433;-74
2022/08/03 04:17:51;;;;;;;2.30;1.73;;;19.20;99.90;;;;;;5015650;28;20947;-74
2022/08/03 04:20:19;;;;;;;2.80;1.70;;;19.20;99.90;;;;;;5015601;28;20473;-74
2022/08/03 04:22:46;;;;;;;5.43;2.83;;;19.10;99.90;;;;;;5016153;28;20766;-74
2022/08/03 04:25:18;;;;;;;2.47;2.27;;;19.10;99.90;;;;;;5015304;28;20490;-74
2022/08/03 04:27:46;;;;;;;3.50;2.80;;;19.10;99.90;;;;;;5015655;28;20415;-74
2022/08/03 04:30:13;;;;;;;2.37;1.90;;;19.10;99.90;;;;;;5015442;28;20429;-73
2022/08/03 04:32:40;;;;;;;4.27;3.07;;;19.10;99.90;;;;;;5015580;28;20779;-73
2022/08/03 04:35:07;;;;;;;2.57;2.37;;;19.00;99.90;;;;;;5015130;28;20412;-73
2022/08/03 04:37:38;;;;;;;5.23;2.73;;;19.00;99.90;;;;;;5015370;28;20462;-73
2022/08/03 04:40:12;;;;;;;5.33;3.40;;;19.10;99.90;;;;;;5015294;28;20438;-73
2022/08/03 04:42:38;;;;;;;2.90;2.37;;;19.10;99.90;;;;;;5015362;28;20403;-73
2022/08/03 04:45:06;;;;;;;2.27;2.07;;;19.10;99.90;;;;;;5014891;28;20799;-73
2022/08/03 04:47:33;;;;;;;2.33;2.10;;;19.10;99.90;;;;;;5015228;28;20407;-73
2022/08/03 04:50:01;;;;;;;2.57;2.00;;;19.20;99.90;;;;;;5015175;28;20887;-73
2022/08/03 04:52:26;;;;;;;2.80;2.40;;;19.20;99.90;;;;;;5014979;28;20517;-73
2022/08/03 04:54:52;;;;;;;3.23;2.47;;;19.20;99.90;;;;;;5014792;28;20976;-73
2022/08/03 04:57:18;;;;;;;2.90;2.00;;;19.30;99.90;;;;;;5014998;28;20200;-74
2022/08/03 04:59:44;;;;;;;2.30;2.10;;;19.30;99.90;;;;;;5015003;28;20252;-74
2022/08/03 05:02:09;;;;;;;2.53;1.93;;;19.30;99.90;;;;;;5014843;28;20848;-74
2022/08/03 05:04:36;;;;;;;3.90;2.43;;;19.40;99.90;;;;;;5014773;28;20173;-74
2022/08/03 05:07:02;;;;;;;2.50;2.30;;;19.40;99.90;;;;;;5013558;28;20198;-74
2022/08/03 05:09:28;;;;;;;2.40;1.80;;;19.50;99.90;;;;;;5014880;28;20507;-74
2022/08/03 05:11:54;;;;;;;2.03;1.83;;;19.50;99.90;;;;;;5014689;28;20470;-74
2022/08/03 05:14:19;;;;;;;3.87;2.30;;;19.60;99.90;;;;;;5014449;28;20181;-74
2022/08/03 05:16:45;;;;;;;3.03;2.07;;;19.70;99.90;;;;;;5014652;28;20451;-74
2022/08/03 05:19:11;;;;;;;3.37;2.40;;;19.70;99.90;;;;;;5014758;28;20172;-74
2022/08/03 05:21:37;;;;;;;2.43;1.83;;;19.80;99.90;;;;;;5014475;28;20200;-74
2022/08/03 05:24:02;;;;;;;4.00;2.83;;;19.80;99.90;;;;;;5014494;28;20695;-74
2022/08/03 05:26:28;;;;;;;3.23;2.60;;;19.80;99.90;;;;;;5014238;28;20218;-74
2022/08/03 05:28:53;;;;;;;3.57;2.30;;;19.90;99.90;;;;;;5014491;28;20200;-74
2022/08/03 05:31:19;;;;;;;3.13;2.30;;;20.00;99.90;;;;;;5014413;28;20278;-74
2022/08/03 05:33:46;;;;;;;2.27;2.07;;;20.10;99.90;;;;;;5014393;28;20179;-74
2022/08/03 05:36:12;;;;;;;2.60;2.27;;;20.10;99.90;;;;;;5013944;28;20230;-74
2022/08/03 05:38:37;;;;;;;9.27;3.93;;;20.30;99.90;;;;;;5012909;28;20925;-74
2022/08/03 05:41:03;;;;;;;2.90;2.60;;;20.50;99.90;;;;;;5014138;28;20203;-74
2022/08/03 05:43:30;;;;;;;5.90;2.90;;;20.70;99.90;;;;;;5014158;28;20179;-74
2022/08/03 05:45:57;;;;;;;2.77;2.00;;;21.00;99.90;;;;;;5013791;28;20169;-74
2022/08/03 05:48:23;;;;;;;2.33;2.13;;;21.20;99.90;;;;;;5014110;28;20442;-74
2022/08/03 05:50:48;;;;;;;2.73;2.00;;;21.50;99.90;;;;;;5013917;28;20427;-74
2022/08/03 05:53:14;;;;;;;3.17;2.30;;;21.80;99.90;;;;;;5014017;28;20180;-74
2022/08/03 05:55:39;;;;;;;2.30;2.10;;;22.10;99.90;;;;;;5012309;28;20254;-74
2022/08/03 05:58:05;;;;;;;2.10;1.90;;;22.40;99.90;;;;;;5013808;28;20195;-74
2022/08/03 06:00:30;;;;;;;6.83;2.80;;;22.80;99.90;;;;;;5013863;28;20216;-74
2022/08/03 06:02:56;;;;;;;2.53;2.30;;;23.20;99.90;;;;;;5013845;28;20172;-74
2022/08/03 06:05:21;;;;;;;3.30;3.00;;;23.80;99.90;;;;;;5013529;28;20175;-74
2022/08/03 06:07:47;;;;;;;3.10;2.10;;;24.30;99.90;;;;;;5013692;28;20172;-74
2022/08/03 06:10:13;;;;;;;3.20;2.00;;;24.90;99.90;;;;;;5013700;28;20306;-74
2022/08/03 06:12:40;;;;;;;4.20;2.07;;;25.50;99.90;;;;;;5013704;28;20187;-74
2022/08/03 06:15:06;;;;;;;3.57;2.20;;;26.00;99.90;;;;;;5013288;28;20171;-74
2022/08/03 06:17:31;;;;;;;4.30;2.40;;;26.60;99.90;;;;;;5013636;28;20548;-75
2022/08/03 06:19:57;;;;;;;3.90;2.40;;;27.10;99.90;;;;;;5013589;28;20912;-74
2022/08/03 06:22:22;;;;;;;4.40;2.07;;;27.60;99.90;;;;;;5013612;28;20633;-74
2022/08/03 06:24:48;;;;;;;3.53;2.10;;;27.90;99.90;;;;;;5013184;28;20175;-75
2022/08/03 06:27:14;;;;;;;6.00;2.30;;;28.20;99.90;;;;;;5013363;28;20180;-75
2022/08/03 06:29:39;;;;;;;4.00;2.23;;;28.70;99.90;;;;;;5013443;28;20255;-75
2022/08/03 06:32:05;;;;;;;2.00;1.80;;;29.00;99.90;;;;;;5012079;28;20610;-75
2022/08/03 06:34:30;;;;;;;2.97;2.30;;;29.40;99.90;;;;;;5012729;28;20286;-75
2022/08/03 06:36:56;;;;;;;2.17;1.97;;;30.00;99.90;;;;;;5012074;28;20200;-75
2022/08/03 06:39:22;;;;;;;2.73;2.53;;;30.30;97.30;;;;;;5013292;28;20169;-75
2022/08/03 06:41:47;;;;;;;4.03;2.20;;;30.70;95.10;;;;;;5013043;28;20192;-75
2022/08/03 06:44:13;;;;;;;2.27;2.07;;;31.10;93.30;;;;;;5012836;28;20165;-75
2022/08/03 06:46:38;;;;;;;8.43;2.63;;;31.50;90.80;;;;;;5013034;28;20176;-75
2022/08/03 06:49:06;;;;;;;2.57;2.30;;;32.20;84.20;;;;;;5012850;28;20176;-75
2022/08/03 06:51:31;;;;;;;5.03;2.90;;;32.60;80.80;;;;;;5012886;28;20207;-75
2022/08/03 06:53:57;;;;;;;4.40;3.47;;;32.90;80.00;;;;;;5012860;28;20407;-76
2022/08/03 06:56:23;;;;;;;2.63;2.20;;;33.30;75.00;;;;;;5011537;28;20226;-75
2022/08/03 06:58:48;;;;;;;3.97;2.20;;;33.90;72.30;;;;;;5020675;28;20175;-75
2022/08/03 07:01:14;;;;;;;4.73;2.33;;;34.20;72.00;;;;;;5023147;28;20648;-75
2022/08/03 07:03:39;;;;;;;3.00;2.50;;;35.00;65.50;;;;;;5027788;28;20178;-75
2022/08/03 07:06:05;;;;;;;2.50;2.30;;;35.50;61.20;;;;;;5032431;28;20246;-75
2022/08/03 07:08:31;;;;;;;2.70;2.50;;;36.00;60.00;;;;;;5025505;28;20172;-75
2022/08/03 07:10:56;;;;;;;3.77;2.30;;;36.40;61.70;;;;;;5012674;28;20646;-75
2022/08/03 07:13:22;;;;;;;2.53;2.33;;;37.00;55.30;;;;;;5012855;28;20644;-75
2022/08/03 07:15:47;;;;;;;2.80;2.47;;;37.70;52.80;;;;;;5012395;28;20722;-76
2022/08/03 07:18:13;;;;;;;2.43;2.23;;;37.80;51.70;;;;;;5012857;28;20270;-76
2022/08/03 07:20:39;;;;;;;2.77;2.57;;;38.20;51.90;;;;;;5012765;28;20231;-75
2022/08/03 07:23:05;;;;;;;3.20;3.00;;;38.70;50.40;;;;;;5012842;28;20626;-76
2022/08/03 07:25:30;;;;;;;3.90;2.70;;;39.10;47.80;;;;;;5012504;28;20407;-76
2022/08/03 07:27:56;;;;;;;2.90;2.70;;;39.50;47.60;;;;;;5012536;28;20176;-76
2022/08/03 07:30:22;;;;;;;2.20;1.93;;;40.00;47.20;;;;;;5012403;28;20270;-76
2022/08/03 07:32:47;;;;;;;3.30;2.43;;;40.40;45.10;;;;;;5012596;28;20172;-76
2022/08/03 07:35:13;;;;;;;1.90;1.80;;;41.10;42.80;;;;;;5012179;28;20172;-75
2022/08/03 07:37:38;;;;;;;2.60;1.73;;;41.40;43.90;;;;;;5012255;28;20290;-75
2022/08/03 07:40:05;;;;;;;2.20;2.00;;;41.50;42.70;;;;;;5012324;28;20168;-76
2022/08/03 07:42:31;;;;;;;4.47;2.57;;;42.20;41.80;;;;;;5012398;28;20221;-76
2022/08/03 07:44:57;;;;;;;3.80;2.07;;;42.60;41.10;;;;;;5011999;28;20461;-76
2022/08/03 07:47:27;;;;;;;2.60;2.23;;;43.10;40.10;;;;;;5013441;28;20381;-76
2022/08/03 07:49:52;;;;;;;3.03;2.10;;;43.50;40.00;;;;;;5016474;28;20418;-74
2022/08/03 07:55:05;;;;;;;2.40;2.00;;;44.80;38.80;;;;;;5016111;28;20256;-74
2022/08/03 07:57:30;;;;;;;2.33;2.13;;;45.00;37.30;;;;;;5016171;28;20970;-74
2022/08/03 07:59:56;;;;;;;2.70;2.17;;;45.30;35.70;;;;;;5016211;28;20382;-73
2022/08/03 08:02:21;;;;;;;2.10;1.90;;;45.40;35.40;;;;;;5014767;28;20196;-73
2022/08/03 08:04:47;;;;;;;2.63;2.43;;;45.70;35.10;;;;;;5015857;28;20169;-73
2022/08/03 08:07:12;;;;;;;2.33;2.13;;;46.00;33.90;;;;;;5016169;28;20267;-73
2022/08/03 08:09:38;;;;;;;1.93;1.83;;;46.00;33.80;;;;;;5015676;28;20175;-73
2022/08/03 08:12:04;;;;;;;2.50;2.40;;;46.30;33.00;;;;;;5015271;28;20258;-74
2022/08/03 08:14:30;;;;;;;2.40;2.30;;;46.60;33.90;;;;;;5015183;28;20168;-74
2022/08/03 08:16:55;;;;;;;3.67;2.13;;;46.80;32.10;;;;;;5015745;28;20431;-74
2022/08/03 08:19:21;;;;;;;2.50;2.30;;;47.00;32.90;;;;;;5015866;28;20664;-74
2022/08/03 08:21:46;;;;;;;4.03;2.63;;;47.60;33.80;;;;;;5015418;28;20680;-74
2022/08/03 08:24:12;;;;;;;2.47;2.27;;;47.90;32.80;;;;;;5015241;28;20501;-73
2022/08/03 08:26:37;;;;;;;2.83;2.63;;;48.20;32.30;;;;;;5015222;28;20250;-73
2022/08/03 08:29:03;;;;;;;2.50;2.40;;;48.70;31.00;;;;;;5015797;28;20199;-73
2022/08/03 08:31:29;;;;;;;2.87;2.67;;;49.10;31.50;;;;;;5015491;28;20207;-74
2022/08/03 08:33:54;;;;;;;2.90;2.70;;;49.40;30.10;;;;;;5015565;28;20892;-73
2022/08/03 08:36:20;;;;;;;6.70;3.00;;;49.80;30.60;;;;;;5014982;28;20234;-74
2022/08/03 08:38:46;;;;;;;3.40;2.90;;;50.10;30.00;;;;;;5015425;28;20196;-73
2022/08/03 08:41:13;;;;;;;2.67;2.57;;;50.80;29.20;;;;;;5014979;28;20196;-73
2022/08/03 08:43:40;;;;;;;3.03;2.73;;;51.30;28.20;;;;;;5015102;28;20194;-73
2022/08/03 08:46:07;;;;;;;6.40;2.77;;;51.10;27.00;;;;;;5014811;28;20405;-73
2022/08/03 08:48:34;;;;;;;3.17;2.17;;;50.60;26.70;;;;;;5015245;28;20411;-72
2022/08/03 08:51:01;;;;;;;2.53;2.17;;;49.40;27.20;;;;;;5014797;28;20959;-73
2022/08/03 08:53:28;;;;;;;2.33;2.23;;;49.30;27.40;;;;;;5015187;28;20872;-73
2022/08/03 08:55:59;;;;;;;2.47;2.37;;;48.90;27.70;;;;;;5014684;28;20785;-73
2022/08/03 08:58:27;;;;;;;2.63;2.53;;;48.80;28.40;;;;;;5014478;28;20388;-72
2022/08/03 09:00:52;;;;;;;2.73;2.53;;;48.90;27.50;;;;;;5014745;28;21008;-73
2022/08/03 09:03:18;;;;;;;2.40;2.30;;;48.80;28.30;;;;;;5013576;28;20476;-72
2022/08/03 09:05:44;;;;;;;2.60;2.40;;;49.10;27.60;;;;;;5014540;28;20164;-73
2022/08/03 09:08:10;;;;;;;2.63;2.00;;;48.80;28.30;;;;;;5014649;28;20169;-73
2022/08/03 09:10:35;;;;;;;2.77;2.57;;;49.10;29.20;;;;;;5014528;28;20661;-73
2022/08/03 09:13:01;;;;;;;3.33;3.13;;;50.00;28.30;;;;;;5014560;28;20630;-73
2022/08/03 09:15:32;;;;;;;3.40;3.20;;;50.80;28.40;;;;;;5014067;28;20176;-73
2022/08/03 09:18:03;;;;;;;3.30;3.10;;;51.00;27.50;;;;;;5013312;28;20172;-73
2022/08/03 09:20:32;;;;;;;3.10;2.90;;;51.30;27.20;;;;;;5014271;28;20419;-73
2022/08/03 09:23:01;;;;;;;2.80;2.60;;;52.00;26.10;;;;;;5013219;28;20418;-72
2022/08/03 09:25:29;;;;;;;3.30;3.10;;;50.90;26.60;;;;;;5014064;28;20403;-72
2022/08/03 09:28:07;;;;;;;2.70;2.50;;;50.90;26.80;;;;;;5014340;28;20406;-72
2022/08/03 09:30:33;;;;;;;3.07;2.87;;;50.50;26.40;;;;;;5014333;28;20429;-73
2022/08/03 09:33:03;;;;;;;2.80;2.60;;;50.40;28.00;;;;;;5014610;28;20394;-73
2022/08/03 09:35:29;;;;;;;3.07;2.77;;;51.00;27.20;;;;;;5013768;28;20409;-72
2022/08/03 09:38:08;;;;;;;2.80;2.60;;;51.60;26.10;;;;;;5014175;28;20477;-72
2022/08/03 09:40:35;;;;;;;2.80;2.60;;;51.80;26.60;;;;;;5014135;28;20184;-72
2022/08/03 09:43:00;;;;;;;3.00;2.80;;;51.70;25.70;;;;;;5014021;28;20414;-72
2022/08/03 09:45:27;;;;;;;2.50;2.40;;;51.00;26.50;;;;;;5013801;28;20399;-73
2022/08/03 09:47:52;;;;;;;2.60;2.50;;;51.40;26.90;;;;;;5013961;28;20629;-73
2022/08/03 09:50:18;;;;;;;5.57;3.10;;;51.90;26.50;;;;;;5013859;28;20465;-72
2022/08/03 09:52:46;;;;;;;21.83;20.03;;;52.20;25.90;;;;;;5013687;28;20188;-73
2022/08/03 09:55:13;;;;;;;2.97;2.87;;;53.00;26.90;;;;;;5013813;28;20156;-73
2022/08/03 09:57:40;;;;;;;3.23;3.00;;;53.40;26.20;;;;;;5013770;28;20541;-73
2022/08/03 10:00:14;;;;;;;3.40;3.20;;;53.60;25.40;;;;;;5013837;28;20776;-73
2022/08/03 10:02:41;;;;;;;3.50;3.30;;;53.90;25.90;;;;;;5014009;28;20472;-73
2022/08/03 10:05:09;;;;;;;3.80;3.60;;;54.30;25.60;;;;;;5013635;28;20425;-73
2022/08/03 10:07:49;;;;;;;3.97;3.77;;;54.90;24.20;;;;;;5013975;28;20407;-73
2022/08/03 10:10:16;;;;;;;3.50;3.30;;;54.60;24.60;;;;;;5013036;28;20517;-73
2022/08/03 10:12:43;;;;;;;3.30;3.20;;;54.30;24.90;;;;;;5013751;28;20406;-73
2022/08/03 10:15:09;;;;;;;4.27;3.97;;;54.50;24.40;;;;;;5013391;28;20502;-73
2022/08/03 10:17:36;;;;;;;3.60;3.40;;;54.40;25.00;;;;;;5013508;28;20970;-73
2022/08/03 10:20:05;;;;;;;4.63;3.20;;;54.40;25.00;;;;;;5013335;28;20407;-73
2022/08/03 10:22:35;;;;;;;3.70;3.50;;;54.70;25.20;;;;;;5012246;28;20418;-73
2022/08/03 10:25:08;;;;;;;5.90;3.40;;;55.20;24.30;;;;;;5013256;28;20426;-73
2022/08/03 10:27:37;;;;;;;3.20;3.00;;;54.70;23.80;;;;;;5013816;28;20409;-73
2022/08/03 10:30:09;;;;;;;3.20;3.00;;;54.00;23.80;;;;;;5013518;28;20769;-73
2022/08/03 10:32:47;;;;;;;3.33;3.03;;;53.30;24.00;;;;;;5013650;28;20852;-72
2022/08/03 10:35:15;;;;;;;3.63;3.43;;;53.10;24.50;;;;;;5013357;28;20406;-72
2022/08/03 10:37:42;;;;;;;3.20;3.00;;;53.00;25.10;;;;;;5013161;28;20868;-72
2022/08/03 10:40:13;;;;;;;2.50;2.40;;;52.70;24.20;;;;;;5013470;28;20452;-72
2022/08/03 10:42:41;;;;;;;2.77;2.50;;;52.30;24.30;;;;;;5013126;28;20453;-72
2022/08/03 10:45:17;;;;;;;2.90;2.77;;;52.30;25.30;;;;;;5011468;28;20766;-72
2022/08/03 10:47:43;;;;;;;2.97;2.67;;;52.70;25.30;;;;;;5013014;28;20489;-72
2022/08/03 10:50:09;;;;;;;3.37;3.17;;;53.40;25.50;;;;;;5012858;28;20414;-72
2022/08/03 10:52:35;;;;;;;3.70;3.50;;;54.10;25.60;;;;;;5012790;28;20438;-72
2022/08/03 10:57:46;;;;;;;3.37;3.17;;;55.20;24.20;;;;;;5013265;28;20199;-72
2022/08/03 11:00:18;;;;;;;2.93;2.83;;;54.90;24.20;;;;;;5012895;28;20434;-72
2022/08/03 11:03:04;;;;;;;3.13;3.00;;;54.80;23.50;;;;;;5012923;28;20396;-72
2022/08/03 11:05:36;;;;;;;4.00;3.80;;;54.30;24.20;;;;;;5012756;28;20402;-72
2022/08/03 11:08:25;;;;;;;5.60;2.93;;;53.90;23.70;;;;;;5012869;28;20411;-71
2022/08/03 11:10:54;;;;;;;3.27;2.97;;;53.50;23.30;;;;;;5012509;28;20895;-71
2022/08/03 11:13:22;;;;;;;2.63;2.53;;;53.50;24.50;;;;;;5012611;28;20892;-71
2022/08/03 11:15:51;;;;;;;3.00;2.90;;;54.00;24.60;;;;;;5010889;28;20797;-71
2022/08/03 11:18:17;;;;;;;3.40;3.10;;;54.90;24.50;;;;;;5012686;28;20399;-71
2022/08/03 11:20:50;;;;;;;3.50;3.40;;;55.40;24.30;;;;;;5012310;28;20433;-71
2022/08/03 11:23:17;;;;;;;4.60;4.40;;;55.70;23.70;;;;;;5012434;28;20454;-71
2022/08/03 11:26:14;;;;;;;4.63;4.33;;;56.20;24.20;;;;;;5012110;28;20406;-72
2022/08/03 11:28:42;;;;;;;4.27;4.07;;;56.80;22.90;;;;;;5012343;28;20493;-72
2022/08/03 11:31:26;;;;;;;4.40;4.20;;;56.90;22.30;;;;;;5012284;28;20429;-72
2022/08/03 11:34:08;;;;;;;3.77;3.57;;;56.50;22.80;;;;;;5012727;28;20493;-72
2022/08/03 11:37:11;;;;;;;3.00;2.80;;;55.60;22.10;;;;;;5012003;28;20433;-72
2022/08/03 11:39:47;;;;;;;2.70;2.50;;;53.70;22.40;;;;;;5012234;28;20773;-72
2022/08/03 11:42:22;;;;;;;2.30;2.10;;;52.00;23.90;;;;;;5012119;28;20438;-71
2022/08/03 11:44:49;;;;;;;4.20;3.90;;;49.60;24.30;;;;;;5011882;28;20397;-71
2022/08/03 11:47:16;;;;;;;1.50;1.40;;;47.80;26.50;;;;;;5012222;28;20380;-70
2022/08/03 11:49:47;;;;;;;2.03;1.40;;;46.70;26.20;;;;;;5010899;28;20488;-71
2022/08/03 11:52:14;;;;;;;2.20;2.00;;;45.80;26.80;;;;;;5011951;28;20418;-70
2022/08/03 11:54:40;;;;;;;2.07;1.90;;;44.60;27.10;;;;;;5011794;28;20831;-71
2022/08/03 11:57:05;;;;;;;2.13;1.80;;;43.90;27.70;;;;;;5012000;28;20469;-70
2022/08/03 11:59:33;;;;;;;5.60;1.90;;;42.80;28.70;;;;;;5012093;28;20243;-70
2022/08/03 12:02:12;;;;;;;1.97;1.53;;;42.90;30.40;;;;;;5012046;28;20184;-70
2022/08/03 12:04:53;;;;;;;4.87;2.00;;;43.90;31.00;;;;;;5011780;28;20468;-71
2022/08/03 12:07:19;;;;;;;1.90;1.80;;;45.40;30.00;;;;;;5010723;28;20389;-71
2022/08/03 12:10:11;;;;;;;2.80;2.60;;;46.70;28.80;;;;;;5012028;28;20464;-71
2022/08/03 12:12:38;;;;;;;2.53;2.33;;;48.90;28.70;;;;;;5011904;28;20406;-71
2022/08/03 12:15:05;;;;;;;2.33;2.23;;;50.60;26.60;;;;;;5011621;28;20825;-71
2022/08/03 12:17:36;;;;;;;3.20;2.63;;;52.00;26.50;;;;;;5011864;28;20449;-71
2022/08/03 12:20:02;;;;;;;2.80;2.70;;;53.30;25.90;;;;;;5011843;28;20398;-71
2022/08/03 12:22:37;;;;;;;3.10;2.90;;;53.90;24.70;;;;;;5011957;28;20438;-71
2022/08/03 12:25:07;;;;;;;3.10;3.00;;;54.30;24.80;;;;;;5011700;28;20517;-71
2022/08/03 12:27:34;;;;;;;3.93;3.73;;;54.80;24.90;;;;;;5011742;28;20407;-71
2022/08/03 12:30:00;;;;;;;3.80;3.60;;;55.20;23.90;;;;;;5011655;28;20406;-72
2022/08/03 12:32:27;;;;;;;3.30;3.10;;;55.40;24.00;;;;;;5011900;28;20421;-72
2022/08/03 12:34:58;;;;;;;3.80;3.60;;;55.60;23.80;;;;;;5015088;28;20398;-75
2022/08/03 12:37:24;;;;;;;4.00;3.80;;;55.90;23.90;;;;;;5015430;28;20450;-72
2022/08/03 12:39:51;;;;;;;3.90;3.43;;;55.70;23.60;;;;;;5015407;28;20409;-72
2022/08/03 12:42:17;;;;;;;2.70;2.60;;;54.40;24.10;;;;;;5015262;28;20442;-72
2022/08/03 12:44:44;;;;;;;4.10;3.90;;;54.00;25.40;;;;;;5014971;28;20406;-72
2022/08/03 12:47:10;;;;;;;3.80;3.60;;;54.00;25.00;;;;;;5015250;28;20160;-72
2022/08/03 12:49:51;;;;;;;3.43;3.23;;;54.30;24.40;;;;;;5015315;28;20414;-73
2022/08/03 12:52:18;;;;;;;3.43;3.23;;;54.70;24.40;;;;;;5015002;28;20839;-72
2022/08/03 12:54:55;;;;;;;4.00;3.80;;;54.80;24.00;;;;;;5014828;28;20904;-72
2022/08/03 12:57:20;;;;;;;4.30;4.10;;;55.00;24.40;;;;;;5015046;28;20951;-71
2022/08/03 12:59:47;;;;;;;3.67;3.43;;;55.20;24.10;;;;;;5014988;28;20411;-71
2022/08/03 13:02:21;;;;;;;3.37;3.17;;;55.20;23.90;;;;;;5014936;28;20245;-71
2022/08/03 13:04:48;;;;;;;3.20;2.97;;;54.30;24.10;;;;;;5014728;28;20403;-71
2022/08/03 13:07:15;;;;;;;2.43;2.30;;;52.70;25.10;;;;;;5014873;28;20403;-71